sensor_id;sensor_type;location;lat;lon;timestamp;P1;durP1;ratioP1;P2;durP2;ratioP2
39094;SDS011;24840;47.508;19.376;2022-08-19T00:00:36;9.68;;;7.57;;
39094;SDS011;24840;47.508;19.376;2022-08-19T00:03:03;10.52;;;9.00;;
39094;SDS011;24840;47.508;19.376;2022-08-19T00:05:29;11.85;;;8.40;;
39094;SDS011;24840;47.508;19.376;2022-08-19T00:07:56;11.43;;;7.95;;
39094;SDS011;24840;47.508;19.376;2022-08-19T00:10:22;9.73;;;8.18;;
39094;SDS011;24840;47.508;19.376;2022-08-19T00:12:49;9.05;;;8.05;;
39094;SDS011;24840;47.508;19.376;2022-08-19T00:15:16;8.95;;;8.05;;
39094;SDS011;24840;47.508;19.376;2022-08-19T00:17:44;10.98;;;8.40;;
39094;SDS011;24840;47.508;19.376;2022-08-19T00:20:12;9.63;;;8.00;;
39094;SDS011;24840;47.508;19.376;2022-08-19T00:22:42;10.23;;;9.23;;
39094;SDS011;24840;47.508;19.376;2022-08-19T00:25:08;9.60;;;8.70;;
39094;SDS011;24840;47.508;19.376;2022-08-19T00:27:35;11.52;;;8.27;;
39094;SDS011;24840;47.508;19.376;2022-08-19T00:30:01;9.68;;;8.68;;
39094;SDS011;24840;47.508;19.376;2022-08-19T00:32:29;9.77;;;8.02;;
39094;SDS011;24840;47.508;19.376;2022-08-19T00:34:55;11.77;;;7.65;;
39094;SDS011;24840;47.508;19.376;2022-08-19T00:37:22;11.45;;;8.40;;
39094;SDS011;24840;47.508;19.376;2022-08-19T00:39:50;9.40;;;8.60;;
39094;SDS011;24840;47.508;19.376;2022-08-19T00:42:17;9.38;;;8.55;;
39094;SDS011;24840;47.508;19.376;2022-08-19T00:44:43;12.18;;;8.35;;
39094;SDS011;24840;47.508;19.376;2022-08-19T00:47:12;8.80;;;8.00;;
39094;SDS011;24840;47.508;19.376;2022-08-19T00:49:43;8.98;;;8.07;;
39094;SDS011;24840;47.508;19.376;2022-08-19T00:52:30;10.05;;;8.43;;
39094;SDS011;24840;47.508;19.376;2022-08-19T00:55:00;9.73;;;8.73;;
39094;SDS011;24840;47.508;19.376;2022-08-19T00:57:32;10.15;;;8.25;;
39094;SDS011;24840;47.508;19.376;2022-08-19T01:00:05;10.38;;;9.35;;
39094;SDS011;24840;47.508;19.376;2022-08-19T01:02:36;11.52;;;8.60;;
39094;SDS011;24840;47.508;19.376;2022-08-19T01:05:05;9.60;;;8.65;;
39094;SDS011;24840;47.508;19.376;2022-08-19T01:07:34;9.80;;;8.68;;
39094;SDS011;24840;47.508;19.376;2022-08-19T01:10:02;9.68;;;8.73;;
39094;SDS011;24840;47.508;19.376;2022-08-19T01:12:29;13.75;;;9.45;;
39094;SDS011;24840;47.508;19.376;2022-08-19T01:14:55;9.75;;;8.90;;
39094;SDS011;24840;47.508;19.376;2022-08-19T01:17:22;10.60;;;8.93;;
39094;SDS011;24840;47.508;19.376;2022-08-19T01:19:49;10.45;;;9.38;;
39094;SDS011;24840;47.508;19.376;2022-08-19T01:22:19;10.60;;;9.50;;
39094;SDS011;24840;47.508;19.376;2022-08-19T01:24:53;10.80;;;8.90;;
39094;SDS011;24840;47.508;19.376;2022-08-19T01:27:19;9.32;;;8.43;;
39094;SDS011;24840;47.508;19.376;2022-08-19T01:29:45;22.77;;;8.75;;
39094;SDS011;24840;47.508;19.376;2022-08-19T01:32:13;10.63;;;9.30;;
39094;SDS011;24840;47.508;19.376;2022-08-19T01:34:41;21.75;;;10.07;;
39094;SDS011;24840;47.508;19.376;2022-08-19T01:37:11;152.60;;;20.07;;
39094;SDS011;24840;47.508;19.376;2022-08-19T01:39:39;788.45;;;721.58;;
39094;SDS011;24840;47.508;19.376;2022-08-19T01:42:07;979.45;;;878.97;;
39094;SDS011;24840;47.508;19.376;2022-08-19T01:44:36;938.35;;;844.30;;
39094;SDS011;24840;47.508;19.376;2022-08-19T01:47:05;1012.28;;;905.03;;
39094;SDS011;24840;47.508;19.376;2022-08-19T01:49:31;1999.90;;;999.90;;
39094;SDS011;24840;47.508;19.376;2022-08-19T01:51:58;1999.90;;;999.90;;
39094;SDS011;24840;47.508;19.376;2022-08-19T01:54:25;1999.90;;;999.90;;
39094;SDS011;24840;47.508;19.376;2022-08-19T01:56:52;1999.90;;;999.90;;
39094;SDS011;24840;47.508;19.376;2022-08-19T01:59:26;1999.90;;;999.90;;
39094;SDS011;24840;47.508;19.376;2022-08-19T02:01:52;1999.90;;;999.90;;
39094;SDS011;24840;47.508;19.376;2022-08-19T02:04:18;1999.90;;;999.90;;
39094;SDS011;24840;47.508;19.376;2022-08-19T02:06:44;1999.90;;;999.90;;
39094;SDS011;24840;47.508;19.376;2022-08-19T02:09:10;1999.90;;;999.90;;
39094;SDS011;24840;47.508;19.376;2022-08-19T02:11:36;1999.90;;;999.90;;
39094;SDS011;24840;47.508;19.376;2022-08-19T02:14:06;1999.90;;;999.90;;
39094;SDS011;24840;47.508;19.376;2022-08-19T02:16:33;1999.90;;;999.90;;
39094;SDS011;24840;47.508;19.376;2022-08-19T02:19:01;1999.90;;;999.90;;
39094;SDS011;24840;47.508;19.376;2022-08-19T02:21:28;1999.90;;;999.90;;
39094;SDS011;24840;47.508;19.376;2022-08-19T02:23:55;1999.90;;;999.90;;
39094;SDS011;24840;47.508;19.376;2022-08-19T02:26:21;1999.90;;;999.90;;
39094;SDS011;24840;47.508;19.376;2022-08-19T02:28:47;1999.90;;;999.90;;
39094;SDS011;24840;47.508;19.376;2022-08-19T02:31:18;1999.90;;;999.90;;
39094;SDS011;24840;47.508;19.376;2022-08-19T02:33:46;1999.90;;;999.90;;
39094;SDS011;24840;47.508;19.376;2022-08-19T02:36:13;1999.90;;;999.90;;
39094;SDS011;24840;47.508;19.376;2022-08-19T02:38:42;1999.90;;;999.90;;
39094;SDS011;24840;47.508;19.376;2022-08-19T02:41:13;1999.90;;;999.90;;
39094;SDS011;24840;47.508;19.376;2022-08-19T02:43:43;1999.90;;;999.90;;
39094;SDS011;24840;47.508;19.376;2022-08-19T02:46:14;1999.90;;;999.90;;
39094;SDS011;24840;47.508;19.376;2022-08-19T02:48:46;1999.90;;;999.90;;
39094;SDS011;24840;47.508;19.376;2022-08-19T02:51:22;1999.90;;;999.90;;
39094;SDS011;24840;47.508;19.376;2022-08-19T02:53:52;1999.90;;;999.90;;
39094;SDS011;24840;47.508;19.376;2022-08-19T02:56:19;1999.90;;;999.90;;
39094;SDS011;24840;47.508;19.376;2022-08-19T02:58:46;1999.90;;;999.90;;
39094;SDS011;24840;47.508;19.376;2022-08-19T03:01:23;1999.90;;;999.90;;
39094;SDS011;24840;47.508;19.376;2022-08-19T03:03:52;1999.90;;;999.90;;
39094;SDS011;24840;47.508;19.376;2022-08-19T03:06:19;1999.90;;;999.90;;
39094;SDS011;24840;47.508;19.376;2022-08-19T03:08:46;1999.90;;;999.90;;
39094;SDS011;24840;47.508;19.376;2022-08-19T03:11:15;1999.90;;;999.90;;
39094;SDS011;24840;47.508;19.376;2022-08-19T03:13:43;1999.90;;;999.90;;
39094;SDS011;24840;47.508;19.376;2022-08-19T03:16:10;1999.90;;;999.90;;
39094;SDS011;24840;47.508;19.376;2022-08-19T03:18:37;1999.90;;;999.90;;
39094;SDS011;24840;47.508;19.376;2022-08-19T03:21:03;1999.90;;;999.90;;
39094;SDS011;24840;47.508;19.376;2022-08-19T03:23:30;1999.90;;;999.90;;
39094;SDS011;24840;47.508;19.376;2022-08-19T03:25:56;1999.90;;;999.90;;
39094;SDS011;24840;47.508;19.376;2022-08-19T03:28:22;1999.90;;;999.90;;
39094;SDS011;24840;47.508;19.376;2022-08-19T03:30:56;1999.90;;;999.90;;
39094;SDS011;24840;47.508;19.376;2022-08-19T03:33:23;1999.90;;;999.90;;
39094;SDS011;24840;47.508;19.376;2022-08-19T03:36:12;1999.90;;;999.90;;
39094;SDS011;24840;47.508;19.376;2022-08-19T03:38:40;1999.90;;;999.90;;
39094;SDS011;24840;47.508;19.376;2022-08-19T03:41:13;1999.90;;;999.90;;
39094;SDS011;24840;47.508;19.376;2022-08-19T03:43:41;1999.90;;;999.90;;
39094;SDS011;24840;47.508;19.376;2022-08-19T03:46:10;1999.90;;;999.90;;
39094;SDS011;24840;47.508;19.376;2022-08-19T03:48:38;1999.90;;;999.90;;
39094;SDS011;24840;47.508;19.376;2022-08-19T03:51:05;1999.90;;;999.90;;
39094;SDS011;24840;47.508;19.376;2022-08-19T03:53:32;1999.90;;;999.90;;
39094;SDS011;24840;47.508;19.376;2022-08-19T03:55:59;1999.90;;;999.90;;
39094;SDS011;24840;47.508;19.376;2022-08-19T03:58:25;1999.90;;;999.90;;
39094;SDS011;24840;47.508;19.376;2022-08-19T04:00:54;1999.90;;;999.90;;
39094;SDS011;24840;47.508;19.376;2022-08-19T04:03:21;1999.90;;;999.90;;
39094;SDS011;24840;47.508;19.376;2022-08-19T04:05:49;1999.90;;;999.90;;
39094;SDS011;24840;47.508;19.376;2022-08-19T04:08:16;1999.90;;;999.90;;
39094;SDS011;24840;47.508;19.376;2022-08-19T04:10:45;1999.90;;;999.90;;
39094;SDS011;24840;47.508;19.376;2022-08-19T04:13:13;1999.90;;;999.90;;
39094;SDS011;24840;47.508;19.376;2022-08-19T04:15:43;1999.90;;;999.90;;
39094;SDS011;24840;47.508;19.376;2022-08-19T04:18:12;1999.90;;;999.90;;
39094;SDS011;24840;47.508;19.376;2022-08-19T04:20:39;1999.90;;;999.90;;
39094;SDS011;24840;47.508;19.376;2022-08-19T04:23:06;1999.90;;;999.90;;
39094;SDS011;24840;47.508;19.376;2022-08-19T04:25:37;1999.90;;;999.90;;
39094;SDS011;24840;47.508;19.376;2022-08-19T04:28:04;1999.90;;;999.90;;
39094;SDS011;24840;47.508;19.376;2022-08-19T04:30:30;1999.90;;;999.90;;
39094;SDS011;24840;47.508;19.376;2022-08-19T04:32:56;1999.90;;;999.90;;
39094;SDS011;24840;47.508;19.376;2022-08-19T04:35:21;1999.90;;;999.90;;
39094;SDS011;24840;47.508;19.376;2022-08-19T04:37:47;1999.90;;;999.90;;
39094;SDS011;24840;47.508;19.376;2022-08-19T04:40:13;1999.90;;;999.90;;
39094;SDS011;24840;47.508;19.376;2022-08-19T04:42:58;1999.90;;;999.90;;
39094;SDS011;24840;47.508;19.376;2022-08-19T04:45:24;1999.90;;;999.90;;
39094;SDS011;24840;47.508;19.376;2022-08-19T04:47:53;1999.90;;;999.90;;
39094;SDS011;24840;47.508;19.376;2022-08-19T04:50:24;1999.90;;;999.90;;
39094;SDS011;24840;47.508;19.376;2022-08-19T04:52:53;1999.90;;;999.90;;
39094;SDS011;24840;47.508;19.376;2022-08-19T04:55:21;1831.43;;;999.90;;
39094;SDS011;24840;47.508;19.376;2022-08-19T04:57:47;1880.63;;;999.90;;
39094;SDS011;24840;47.508;19.376;2022-08-19T05:00:13;1604.57;;;999.90;;
39094;SDS011;24840;47.508;19.376;2022-08-19T05:02:39;1562.05;;;999.90;;
39094;SDS011;24840;47.508;19.376;2022-08-19T05:05:05;1424.63;;;999.90;;
39094;SDS011;24840;47.508;19.376;2022-08-19T05:07:32;1415.65;;;999.90;;
39094;SDS011;24840;47.508;19.376;2022-08-19T05:09:58;1406.93;;;999.90;;
39094;SDS011;24840;47.508;19.376;2022-08-19T05:12:24;1299.75;;;999.90;;
39094;SDS011;24840;47.508;19.376;2022-08-19T05:14:50;1206.05;;;999.90;;
39094;SDS011;24840;47.508;19.376;2022-08-19T05:17:17;1218.97;;;999.90;;
39094;SDS011;24840;47.508;19.376;2022-08-19T05:19:43;1212.47;;;999.90;;
39094;SDS011;24840;47.508;19.376;2022-08-19T05:22:27;1146.90;;;999.90;;
39094;SDS011;24840;47.508;19.376;2022-08-19T05:25:05;1194.22;;;999.90;;
39094;SDS011;24840;47.508;19.376;2022-08-19T05:27:33;1195.38;;;999.90;;
39094;SDS011;24840;47.508;19.376;2022-08-19T05:29:59;1209.65;;;999.90;;
39094;SDS011;24840;47.508;19.376;2022-08-19T05:32:28;1213.53;;;999.90;;
39094;SDS011;24840;47.508;19.376;2022-08-19T05:34:54;1167.00;;;999.90;;
39094;SDS011;24840;47.508;19.376;2022-08-19T05:37:20;1160.38;;;999.90;;
39094;SDS011;24840;47.508;19.376;2022-08-19T05:39:46;1136.40;;;999.90;;
39094;SDS011;24840;47.508;19.376;2022-08-19T05:42:14;1139.75;;;999.90;;
39094;SDS011;24840;47.508;19.376;2022-08-19T05:44:42;1124.82;;;999.90;;
39094;SDS011;24840;47.508;19.376;2022-08-19T05:47:13;1110.05;;;999.58;;
39094;SDS011;24840;47.508;19.376;2022-08-19T05:49:40;1116.05;;;998.83;;
39094;SDS011;24840;47.508;19.376;2022-08-19T05:52:07;1102.50;;;996.95;;
39094;SDS011;24840;47.508;19.376;2022-08-19T05:54:37;1086.88;;;986.13;;
39094;SDS011;24840;47.508;19.376;2022-08-19T05:57:06;1051.10;;;960.10;;
39094;SDS011;24840;47.508;19.376;2022-08-19T05:59:33;1063.50;;;971.03;;
39094;SDS011;24840;47.508;19.376;2022-08-19T06:02:00;1052.82;;;961.30;;
39094;SDS011;24840;47.508;19.376;2022-08-19T06:04:27;1081.15;;;984.72;;
39094;SDS011;24840;47.508;19.376;2022-08-19T06:06:53;1033.88;;;945.35;;
39094;SDS011;24840;47.508;19.376;2022-08-19T06:09:21;997.90;;;914.90;;
39094;SDS011;24840;47.508;19.376;2022-08-19T06:11:50;961.40;;;887.55;;
39094;SDS011;24840;47.508;19.376;2022-08-19T06:14:22;979.88;;;902.95;;
39094;SDS011;24840;47.508;19.376;2022-08-19T06:16:50;947.70;;;875.60;;
39094;SDS011;24840;47.508;19.376;2022-08-19T06:19:18;942.83;;;872.28;;
39094;SDS011;24840;47.508;19.376;2022-08-19T06:21:46;908.90;;;841.85;;
39094;SDS011;24840;47.508;19.376;2022-08-19T06:24:15;920.88;;;852.47;;
39094;SDS011;24840;47.508;19.376;2022-08-19T06:26:44;909.22;;;842.25;;
39094;SDS011;24840;47.508;19.376;2022-08-19T06:29:13;816.60;;;761.58;;
39094;SDS011;24840;47.508;19.376;2022-08-19T06:31:45;769.33;;;719.67;;
39094;SDS011;24840;47.508;19.376;2022-08-19T06:34:14;740.63;;;693.17;;
39094;SDS011;24840;47.508;19.376;2022-08-19T06:36:42;723.33;;;676.95;;
39094;SDS011;24840;47.508;19.376;2022-08-19T06:39:14;685.50;;;642.97;;
39094;SDS011;24840;47.508;19.376;2022-08-19T06:41:47;676.70;;;634.67;;
39094;SDS011;24840;47.508;19.376;2022-08-19T06:44:15;623.63;;;585.33;;
39094;SDS011;24840;47.508;19.376;2022-08-19T06:46:42;618.42;;;581.08;;
39094;SDS011;24840;47.508;19.376;2022-08-19T06:49:08;626.50;;;587.95;;
39094;SDS011;24840;47.508;19.376;2022-08-19T06:51:36;592.65;;;557.20;;
39094;SDS011;24840;47.508;19.376;2022-08-19T06:54:02;532.17;;;501.50;;
39094;SDS011;24840;47.508;19.376;2022-08-19T06:56:29;517.70;;;486.92;;
39094;SDS011;24840;47.508;19.376;2022-08-19T06:58:59;486.92;;;458.77;;
39094;SDS011;24840;47.508;19.376;2022-08-19T07:01:26;416.23;;;393.13;;
39094;SDS011;24840;47.508;19.376;2022-08-19T07:03:52;452.25;;;427.15;;
39094;SDS011;24840;47.508;19.376;2022-08-19T07:06:19;429.60;;;406.40;;
39094;SDS011;24840;47.508;19.376;2022-08-19T07:08:46;368.23;;;348.98;;
39094;SDS011;24840;47.508;19.376;2022-08-19T07:11:14;351.33;;;333.33;;
39094;SDS011;24840;47.508;19.376;2022-08-19T07:13:43;314.42;;;298.15;;
39094;SDS011;24840;47.508;19.376;2022-08-19T07:16:12;266.52;;;252.65;;
39094;SDS011;24840;47.508;19.376;2022-08-19T07:18:39;289.98;;;274.63;;
39094;SDS011;24840;47.508;19.376;2022-08-19T07:21:06;244.57;;;232.40;;
39094;SDS011;24840;47.508;19.376;2022-08-19T07:23:44;216.05;;;205.43;;
39094;SDS011;24840;47.508;19.376;2022-08-19T07:26:24;194.48;;;184.73;;
39094;SDS011;24840;47.508;19.376;2022-08-19T07:28:54;162.07;;;153.85;;
39094;SDS011;24840;47.508;19.376;2022-08-19T07:31:23;147.52;;;140.13;;
39094;SDS011;24840;47.508;19.376;2022-08-19T07:33:51;168.38;;;159.57;;
39094;SDS011;24840;47.508;19.376;2022-08-19T07:36:21;165.25;;;156.30;;
39094;SDS011;24840;47.508;19.376;2022-08-19T07:38:51;163.15;;;154.60;;
39094;SDS011;24840;47.508;19.376;2022-08-19T07:41:20;130.45;;;123.68;;
39094;SDS011;24840;47.508;19.376;2022-08-19T07:43:49;123.50;;;117.07;;
39094;SDS011;24840;47.508;19.376;2022-08-19T07:46:15;81.13;;;77.10;;
39094;SDS011;24840;47.508;19.376;2022-08-19T07:48:43;91.43;;;86.90;;
39094;SDS011;24840;47.508;19.376;2022-08-19T07:51:12;67.68;;;64.35;;
39094;SDS011;24840;47.508;19.376;2022-08-19T07:53:40;67.70;;;64.32;;
39094;SDS011;24840;47.508;19.376;2022-08-19T07:56:06;58.08;;;54.78;;
39094;SDS011;24840;47.508;19.376;2022-08-19T07:58:34;52.97;;;50.03;;
39094;SDS011;24840;47.508;19.376;2022-08-19T08:01:04;45.20;;;42.42;;
39094;SDS011;24840;47.508;19.376;2022-08-19T08:03:32;35.80;;;33.45;;
39094;SDS011;24840;47.508;19.376;2022-08-19T08:06:16;37.83;;;35.55;;
39094;SDS011;24840;47.508;19.376;2022-08-19T08:09:03;30.73;;;28.75;;
39094;SDS011;24840;47.508;19.376;2022-08-19T08:11:51;36.45;;;33.97;;
39094;SDS011;24840;47.508;19.376;2022-08-19T08:14:26;21.40;;;19.88;;
39094;SDS011;24840;47.508;19.376;2022-08-19T08:16:55;24.75;;;22.90;;
39094;SDS011;24840;47.508;19.376;2022-08-19T08:19:22;23.52;;;22.02;;
39094;SDS011;24840;47.508;19.376;2022-08-19T08:21:50;14.02;;;12.93;;
39094;SDS011;24840;47.508;19.376;2022-08-19T08:24:17;15.15;;;14.05;;
39094;SDS011;24840;47.508;19.376;2022-08-19T08:26:43;13.90;;;12.73;;
39094;SDS011;24840;47.508;19.376;2022-08-19T08:29:10;12.80;;;10.45;;
39094;SDS011;24840;47.508;19.376;2022-08-19T08:31:38;10.32;;;9.43;;
39094;SDS011;24840;47.508;19.376;2022-08-19T08:36:38;10.18;;;9.43;;
39094;SDS011;24840;47.508;19.376;2022-08-19T08:39:10;10.43;;;9.23;;
39094;SDS011;24840;47.508;19.376;2022-08-19T08:41:47;11.10;;;10.27;;
39094;SDS011;24840;47.508;19.376;2022-08-19T08:44:21;9.60;;;8.70;;
39094;SDS011;24840;47.508;19.376;2022-08-19T08:46:57;8.40;;;7.30;;
39094;SDS011;24840;47.508;19.376;2022-08-19T08:52:48;7.95;;;6.97;;
39094;SDS011;24840;47.508;19.376;2022-08-19T08:55:19;7.55;;;6.32;;
39094;SDS011;24840;47.508;19.376;2022-08-19T09:00:33;6.45;;;5.90;;
39094;SDS011;24840;47.508;19.376;2022-08-19T09:03:02;6.53;;;5.93;;
39094;SDS011;24840;47.508;19.376;2022-08-19T09:05:43;6.90;;;5.63;;
39094;SDS011;24840;47.508;19.376;2022-08-19T09:16:58;6.40;;;5.90;;
39094;SDS011;24840;47.508;19.376;2022-08-19T09:21:54;5.80;;;5.25;;
39094;SDS011;24840;47.508;19.376;2022-08-19T09:24:20;6.72;;;5.28;;
39094;SDS011;24840;47.508;19.376;2022-08-19T09:26:46;6.13;;;5.40;;
39094;SDS011;24840;47.508;19.376;2022-08-19T09:29:12;5.75;;;4.53;;
39094;SDS011;24840;47.508;19.376;2022-08-19T09:31:41;6.10;;;5.50;;
39094;SDS011;24840;47.508;19.376;2022-08-19T09:34:07;6.28;;;5.53;;
39094;SDS011;24840;47.508;19.376;2022-08-19T09:36:33;5.63;;;4.75;;
39094;SDS011;24840;47.508;19.376;2022-08-19T09:39:02;7.65;;;5.45;;
39094;SDS011;24840;47.508;19.376;2022-08-19T09:41:29;5.88;;;5.38;;
39094;SDS011;24840;47.508;19.376;2022-08-19T09:43:57;6.38;;;5.75;;
39094;SDS011;24840;47.508;19.376;2022-08-19T09:46:24;6.95;;;5.88;;
39094;SDS011;24840;47.508;19.376;2022-08-19T09:48:52;6.13;;;5.32;;
39094;SDS011;24840;47.508;19.376;2022-08-19T09:51:22;5.72;;;5.13;;
39094;SDS011;24840;47.508;19.376;2022-08-19T09:53:51;8.85;;;6.13;;
39094;SDS011;24840;47.508;19.376;2022-08-19T09:56:21;5.60;;;5.10;;
39094;SDS011;24840;47.508;19.376;2022-08-19T09:58:48;6.57;;;5.75;;
39094;SDS011;24840;47.508;19.376;2022-08-19T10:01:22;5.57;;;5.03;;
39094;SDS011;24840;47.508;19.376;2022-08-19T10:03:50;6.35;;;5.70;;
39094;SDS011;24840;47.508;19.376;2022-08-19T10:06:18;6.43;;;5.78;;
39094;SDS011;24840;47.508;19.376;2022-08-19T10:08:46;5.95;;;5.55;;
39094;SDS011;24840;47.508;19.376;2022-08-19T10:11:13;11.45;;;5.93;;
39094;SDS011;24840;47.508;19.376;2022-08-19T10:13:41;8.07;;;5.57;;
39094;SDS011;24840;47.508;19.376;2022-08-19T10:16:11;6.05;;;5.55;;
39094;SDS011;24840;47.508;19.376;2022-08-19T10:18:40;6.32;;;5.18;;
39094;SDS011;24840;47.508;19.376;2022-08-19T10:21:15;6.53;;;5.80;;
39094;SDS011;24840;47.508;19.376;2022-08-19T10:23:44;7.28;;;6.15;;
39094;SDS011;24840;47.508;19.376;2022-08-19T10:26:16;6.60;;;5.97;;
39094;SDS011;24840;47.508;19.376;2022-08-19T10:28:47;6.88;;;6.30;;
39094;SDS011;24840;47.508;19.376;2022-08-19T10:31:15;6.20;;;5.70;;
39094;SDS011;24840;47.508;19.376;2022-08-19T10:33:45;6.38;;;5.20;;
39094;SDS011;24840;47.508;19.376;2022-08-19T10:36:17;6.40;;;5.68;;
39094;SDS011;24840;47.508;19.376;2022-08-19T10:38:46;6.82;;;6.05;;
39094;SDS011;24840;47.508;19.376;2022-08-19T10:41:19;11.50;;;6.07;;
39094;SDS011;24840;47.508;19.376;2022-08-19T10:43:47;5.90;;;5.25;;
39094;SDS011;24840;47.508;19.376;2022-08-19T10:46:15;6.00;;;5.40;;
39094;SDS011;24840;47.508;19.376;2022-08-19T10:48:42;6.88;;;6.30;;
39094;SDS011;24840;47.508;19.376;2022-08-19T10:51:09;5.78;;;5.28;;
39094;SDS011;24840;47.508;19.376;2022-08-19T10:53:54;7.45;;;6.75;;
39094;SDS011;24840;47.508;19.376;2022-08-19T10:56:21;6.80;;;6.20;;
39094;SDS011;24840;47.508;19.376;2022-08-19T10:59:06;6.70;;;5.63;;
39094;SDS011;24840;47.508;19.376;2022-08-19T11:01:32;7.22;;;5.95;;
39094;SDS011;24840;47.508;19.376;2022-08-19T11:04:03;6.13;;;5.32;;
39094;SDS011;24840;47.508;19.376;2022-08-19T11:06:33;6.85;;;5.18;;
39094;SDS011;24840;47.508;19.376;2022-08-19T11:08:59;6.50;;;5.30;;
39094;SDS011;24840;47.508;19.376;2022-08-19T11:11:25;7.57;;;6.95;;
39094;SDS011;24840;47.508;19.376;2022-08-19T11:13:52;6.28;;;5.78;;
39094;SDS011;24840;47.508;19.376;2022-08-19T11:16:25;7.05;;;6.15;;
39094;SDS011;24840;47.508;19.376;2022-08-19T11:18:56;7.68;;;6.78;;
39094;SDS011;24840;47.508;19.376;2022-08-19T11:21:25;7.47;;;5.72;;
39094;SDS011;24840;47.508;19.376;2022-08-19T11:23:57;6.25;;;5.75;;
39094;SDS011;24840;47.508;19.376;2022-08-19T11:26:31;8.35;;;6.88;;
39094;SDS011;24840;47.508;19.376;2022-08-19T11:28:58;8.48;;;6.22;;
39094;SDS011;24840;47.508;19.376;2022-08-19T11:31:30;6.90;;;6.25;;
39094;SDS011;24840;47.508;19.376;2022-08-19T11:33:58;8.40;;;6.43;;
39094;SDS011;24840;47.508;19.376;2022-08-19T11:36:26;7.55;;;6.00;;
39094;SDS011;24840;47.508;19.376;2022-08-19T11:38:53;6.70;;;6.13;;
39094;SDS011;24840;47.508;19.376;2022-08-19T11:41:20;6.90;;;6.30;;
39094;SDS011;24840;47.508;19.376;2022-08-19T11:43:49;8.07;;;6.43;;
39094;SDS011;24840;47.508;19.376;2022-08-19T11:46:16;6.50;;;5.90;;
39094;SDS011;24840;47.508;19.376;2022-08-19T11:48:42;6.65;;;6.03;;
39094;SDS011;24840;47.508;19.376;2022-08-19T11:51:12;6.53;;;5.63;;
39094;SDS011;24840;47.508;19.376;2022-08-19T11:53:41;8.70;;;6.72;;
39094;SDS011;24840;47.508;19.376;2022-08-19T11:56:07;7.82;;;6.43;;
39094;SDS011;24840;47.508;19.376;2022-08-19T11:58:35;10.32;;;6.90;;
39094;SDS011;24840;47.508;19.376;2022-08-19T12:01:04;6.50;;;5.90;;
39094;SDS011;24840;47.508;19.376;2022-08-19T12:03:32;7.97;;;6.78;;
39094;SDS011;24840;47.508;19.376;2022-08-19T12:06:02;6.65;;;6.00;;
39094;SDS011;24840;47.508;19.376;2022-08-19T12:08:37;7.15;;;5.75;;
39094;SDS011;24840;47.508;19.376;2022-08-19T12:11:03;6.18;;;5.78;;
39094;SDS011;24840;47.508;19.376;2022-08-19T12:13:33;6.88;;;6.13;;
39094;SDS011;24840;47.508;19.376;2022-08-19T12:15:59;7.20;;;6.65;;
39094;SDS011;24840;47.508;19.376;2022-08-19T12:18:26;10.95;;;6.72;;
39094;SDS011;24840;47.508;19.376;2022-08-19T12:20:53;10.00;;;6.78;;
39094;SDS011;24840;47.508;19.376;2022-08-19T12:23:22;7.40;;;6.70;;
39094;SDS011;24840;47.508;19.376;2022-08-19T12:25:48;9.45;;;6.93;;
39094;SDS011;24840;47.508;19.376;2022-08-19T12:28:21;7.45;;;6.15;;
39094;SDS011;24840;47.508;19.376;2022-08-19T12:30:49;7.35;;;5.93;;
39094;SDS011;24840;47.508;19.376;2022-08-19T12:33:16;7.18;;;5.95;;
39094;SDS011;24840;47.508;19.376;2022-08-19T12:35:43;6.25;;;5.68;;
39094;SDS011;24840;47.508;19.376;2022-08-19T12:38:12;8.23;;;6.00;;
39094;SDS011;24840;47.508;19.376;2022-08-19T12:40:39;7.55;;;6.60;;
39094;SDS011;24840;47.508;19.376;2022-08-19T12:43:06;7.43;;;5.63;;
39094;SDS011;24840;47.508;19.376;2022-08-19T12:45:33;7.30;;;6.55;;
39094;SDS011;24840;47.508;19.376;2022-08-19T12:47:59;7.53;;;6.82;;
39094;SDS011;24840;47.508;19.376;2022-08-19T12:50:25;8.57;;;6.72;;
39094;SDS011;24840;47.508;19.376;2022-08-19T12:52:51;8.35;;;7.57;;
39094;SDS011;24840;47.508;19.376;2022-08-19T12:55:17;8.93;;;6.00;;
39094;SDS011;24840;47.508;19.376;2022-08-19T12:57:44;6.63;;;5.97;;
39094;SDS011;24840;47.508;19.376;2022-08-19T13:00:12;6.95;;;5.85;;
39094;SDS011;24840;47.508;19.376;2022-08-19T13:02:42;9.60;;;5.95;;
39094;SDS011;24840;47.508;19.376;2022-08-19T13:05:11;6.78;;;6.20;;
39094;SDS011;24840;47.508;19.376;2022-08-19T13:07:39;6.35;;;5.80;;
39094;SDS011;24840;47.508;19.376;2022-08-19T13:10:07;7.43;;;6.57;;
39094;SDS011;24840;47.508;19.376;2022-08-19T13:12:34;7.20;;;6.45;;
39094;SDS011;24840;47.508;19.376;2022-08-19T13:15:00;8.30;;;7.55;;
39094;SDS011;24840;47.508;19.376;2022-08-19T13:17:27;11.13;;;6.38;;
39094;SDS011;24840;47.508;19.376;2022-08-19T13:19:53;9.02;;;6.45;;
39094;SDS011;24840;47.508;19.376;2022-08-19T13:22:19;7.45;;;6.80;;
39094;SDS011;24840;47.508;19.376;2022-08-19T13:24:45;9.93;;;8.23;;
39094;SDS011;24840;47.508;19.376;2022-08-19T13:27:11;7.28;;;6.55;;
39094;SDS011;24840;47.508;19.376;2022-08-19T13:29:36;8.10;;;6.40;;
39094;SDS011;24840;47.508;19.376;2022-08-19T13:32:24;6.13;;;5.63;;
39094;SDS011;24840;47.508;19.376;2022-08-19T13:35:08;7.93;;;5.82;;
39094;SDS011;24840;47.508;19.376;2022-08-19T13:37:34;9.52;;;8.43;;
39094;SDS011;24840;47.508;19.376;2022-08-19T13:40:07;12.27;;;8.85;;
39094;SDS011;24840;47.508;19.376;2022-08-19T13:42:40;10.60;;;8.02;;
39094;SDS011;24840;47.508;19.376;2022-08-19T13:45:07;7.90;;;7.10;;
39094;SDS011;24840;47.508;19.376;2022-08-19T13:47:34;6.97;;;6.35;;
39094;SDS011;24840;47.508;19.376;2022-08-19T13:50:04;7.10;;;6.30;;
39094;SDS011;24840;47.508;19.376;2022-08-19T13:52:30;10.48;;;6.03;;
39094;SDS011;24840;47.508;19.376;2022-08-19T13:54:56;9.00;;;6.50;;
39094;SDS011;24840;47.508;19.376;2022-08-19T13:57:23;10.45;;;6.25;;
39094;SDS011;24840;47.508;19.376;2022-08-19T13:59:49;7.95;;;7.03;;
39094;SDS011;24840;47.508;19.376;2022-08-19T14:02:14;10.25;;;6.45;;
39094;SDS011;24840;47.508;19.376;2022-08-19T14:04:40;7.35;;;6.65;;
39094;SDS011;24840;47.508;19.376;2022-08-19T14:07:06;6.93;;;6.22;;
39094;SDS011;24840;47.508;19.376;2022-08-19T14:09:33;10.95;;;6.85;;
39094;SDS011;24840;47.508;19.376;2022-08-19T14:11:59;8.43;;;5.88;;
39094;SDS011;24840;47.508;19.376;2022-08-19T14:14:25;10.88;;;6.00;;
39094;SDS011;24840;47.508;19.376;2022-08-19T14:16:50;5.82;;;5.22;;
39094;SDS011;24840;47.508;19.376;2022-08-19T14:19:18;7.53;;;5.72;;
39094;SDS011;24840;47.508;19.376;2022-08-19T14:21:44;6.22;;;5.60;;
39094;SDS011;24840;47.508;19.376;2022-08-19T14:24:10;7.00;;;6.30;;
39094;SDS011;24840;47.508;19.376;2022-08-19T14:26:36;10.60;;;6.53;;
39094;SDS011;24840;47.508;19.376;2022-08-19T14:29:02;4.88;;;4.47;;
39094;SDS011;24840;47.508;19.376;2022-08-19T14:31:28;11.80;;;5.65;;
39094;SDS011;24840;47.508;19.376;2022-08-19T14:33:54;9.07;;;5.60;;